Corpus, Argentina
Current Conditions -  °F | °C
As of 4:00 PM on Friday 28 Nov 2014 (Local Time) from SGEN Reporting Station
Few Clouds Few Clouds  
Wind Chill: 93°   Ceiling: Unl
Heat Index: 94°   Visibility: 6mi
Dew Point: 63°   Wind: 6mph
Humidity: 36%   Direction: 90°E
Pressure: 29.8"   Gusts: NA
Location:  27.12°S, 55.52°W
Report Text: SGEN 281900Z 09005KT 9999 FEW040 34/17 Q1009
Loading
Personal Weather Stations






























Interactive Weather Map New forecast layout! Learn more

10-Day Weather Forecast

Advertisements
Track Severe Weather on mobile